createdAt,value
2022-10-28T00:01:22.110Z,70.20
2022-10-28T00:03:53.390Z,70.00
2022-10-28T00:06:28.055Z,70.30
2022-10-28T00:08:56.090Z,70.20
2022-10-28T00:11:30.349Z,70.50
2022-10-28T00:14:00.361Z,70.40
2022-10-28T00:16:31.261Z,70.50
2022-10-28T00:19:02.917Z,70.50
2022-10-28T00:21:33.734Z,70.40
2022-10-28T00:24:03.705Z,70.50
2022-10-28T00:26:33.149Z,69.70
2022-10-28T00:29:15.965Z,70.50
2022-10-28T00:31:44.020Z,70.40
2022-10-28T00:34:17.458Z,70.70
2022-10-28T00:36:46.214Z,70.60
2022-10-28T00:39:24.236Z,70.80
2022-10-28T00:41:56.886Z,70.60
2022-10-28T00:44:53.622Z,70.70
2022-10-28T00:47:55.602Z,70.30
2022-10-28T00:50:38.066Z,70.30
2022-10-28T00:53:32.325Z,70.60
2022-10-28T00:56:03.097Z,70.00
2022-10-28T00:58:30.789Z,70.70
2022-10-28T01:00:57.747Z,70.80
2022-10-28T01:03:24.743Z,70.70
2022-10-28T01:05:53.010Z,70.70
2022-10-28T01:08:20.207Z,70.80
2022-10-28T01:11:22.778Z,70.80
2022-10-28T01:14:31.582Z,70.40
2022-10-28T01:17:31.566Z,70.30
2022-10-28T01:20:29.472Z,70.40
2022-10-28T01:23:16.743Z,70.30
2022-10-28T01:26:30.088Z,70.60
2022-10-28T01:29:21.231Z,70.40
2022-10-28T01:32:32.822Z,71.00
2022-10-28T01:35:21.081Z,70.20
2022-10-28T01:38:12.318Z,70.60
2022-10-28T01:40:55.806Z,70.90
2022-10-28T01:43:41.115Z,70.90
2022-10-28T01:46:34.510Z,70.70
2022-10-28T01:49:27.403Z,70.30
2022-10-28T01:52:01.884Z,70.40
2022-10-28T01:54:33.274Z,71.20
2022-10-28T01:57:04.789Z,71.20
2022-10-28T01:59:34.451Z,71.10
2022-10-28T02:04:32.993Z,71.20
2022-10-28T02:07:00.932Z,71.20
2022-10-28T02:09:46.798Z,71.00
2022-10-28T02:12:32.788Z,70.30
2022-10-28T02:15:05.695Z,70.20
2022-10-28T02:17:59.310Z,70.60
2022-10-28T02:20:44.007Z,70.40
2022-10-28T02:23:44.201Z,70.20
2022-10-28T02:26:24.314Z,70.00
2022-10-28T02:29:21.464Z,70.50
2022-10-28T02:32:00.152Z,70.50
2022-10-28T02:34:42.933Z,70.50
2022-10-28T02:37:19.658Z,70.80
2022-10-28T02:39:55.948Z,70.80
2022-10-28T02:42:28.826Z,70.70
2022-10-28T02:45:02.048Z,70.80
2022-10-28T02:47:35.905Z,70.80
2022-10-28T02:50:09.534Z,70.80
2022-10-28T02:52:36.747Z,70.70
2022-10-28T02:55:06.378Z,70.90
2022-10-28T02:57:37.953Z,70.80
2022-10-28T03:00:17.056Z,70.90
2022-10-28T03:02:44.006Z,70.60
2022-10-28T03:05:10.968Z,71.00
2022-10-28T03:07:37.863Z,71.00
2022-10-28T03:10:05.147Z,71.10
2022-10-28T03:12:32.048Z,71.10
2022-10-28T03:14:58.884Z,71.10
2022-10-28T03:17:25.730Z,71.10
2022-10-28T03:19:52.597Z,71.10
2022-10-28T03:22:19.371Z,71.10
2022-10-28T03:24:46.235Z,71.10
2022-10-28T03:27:13.040Z,71.10
2022-10-28T03:29:43.428Z,71.10
2022-10-28T03:32:13.247Z,71.20
2022-10-28T03:34:40.194Z,71.20
2022-10-28T03:37:07.134Z,71.20
2022-10-28T03:39:34.000Z,71.20
2022-10-28T03:42:00.791Z,71.10
2022-10-28T03:44:27.644Z,71.10
2022-10-28T03:46:54.398Z,71.20
2022-10-28T03:49:21.173Z,71.10
2022-10-28T03:51:47.960Z,71.10
2022-10-28T03:54:14.751Z,71.10
2022-10-28T03:56:41.576Z,71.10
2022-10-28T03:59:14.063Z,71.10
2022-10-28T04:01:43.232Z,70.80
2022-10-28T04:04:10.179Z,71.10
2022-10-28T04:06:37.005Z,71.10
2022-10-28T04:09:03.866Z,71.00
2022-10-28T04:11:30.794Z,71.00
2022-10-28T04:13:57.589Z,71.10
2022-10-28T04:16:24.360Z,71.00
2022-10-28T04:18:51.225Z,70.90
2022-10-28T04:21:17.990Z,70.90
2022-10-28T04:23:44.844Z,71.00
2022-10-28T04:26:11.756Z,70.90
2022-10-28T04:28:38.526Z,70.90
2022-10-28T04:31:05.424Z,70.80
2022-10-28T04:33:32.446Z,70.80
2022-10-28T04:35:59.245Z,70.80
2022-10-28T04:38:26.010Z,70.80
2022-10-28T04:40:52.851Z,71.20
2022-10-28T04:43:19.631Z,70.70
2022-10-28T04:45:47.344Z,70.70
2022-10-28T04:48:14.577Z,70.60
2022-10-28T04:50:41.928Z,70.60
2022-10-28T04:53:08.731Z,70.60
2022-10-28T04:55:35.533Z,70.60
2022-10-28T04:58:02.439Z,70.60
2022-10-28T05:00:30.658Z,70.50
2022-10-28T05:03:01.313Z,70.50
2022-10-28T05:05:28.083Z,70.50
2022-10-28T05:07:55.286Z,70.50
2022-10-28T05:10:22.333Z,70.40
2022-10-28T05:12:49.162Z,70.40
2022-10-28T05:15:16.456Z,70.40
2022-10-28T05:17:45.058Z,70.90
2022-10-28T05:20:15.487Z,70.50
2022-10-28T05:22:48.276Z,70.40
2022-10-28T05:25:15.632Z,70.10
2022-10-28T05:27:43.474Z,70.50
2022-10-28T05:30:11.160Z,70.50
2022-10-28T05:32:38.051Z,70.40
2022-10-28T05:35:05.754Z,70.40
2022-10-28T05:37:32.547Z,70.40
2022-10-28T05:39:59.401Z,70.40
2022-10-28T05:42:26.370Z,70.40
2022-10-28T05:44:53.139Z,70.40
2022-10-28T05:47:20.010Z,70.40
2022-10-28T05:49:46.803Z,70.40
2022-10-28T05:52:13.647Z,70.50
2022-10-28T05:54:40.420Z,70.50
2022-10-28T05:57:07.199Z,70.60
2022-10-28T05:59:33.997Z,70.60
2022-10-28T06:02:00.794Z,70.70
2022-10-28T06:04:27.623Z,70.70
2022-10-28T06:06:56.218Z,70.80
2022-10-28T06:09:23.032Z,70.70
2022-10-28T06:11:48.349Z,70.80
2022-10-28T06:14:15.130Z,71.30
2022-10-28T06:16:42.342Z,70.80
2022-10-28T06:19:09.157Z,70.90
2022-10-28T06:21:35.989Z,70.90
2022-10-28T06:24:03.411Z,70.90
2022-10-28T06:26:30.270Z,70.90
2022-10-28T06:28:57.125Z,70.90
2022-10-28T06:31:23.984Z,70.90
2022-10-28T06:33:50.830Z,70.90
2022-10-28T06:36:17.616Z,70.90
2022-10-28T06:38:44.424Z,70.90
2022-10-28T06:41:11.224Z,70.80
2022-10-28T06:43:38.020Z,70.80
2022-10-28T06:46:04.918Z,70.70
2022-10-28T06:48:33.250Z,70.70
2022-10-28T06:51:00.166Z,70.70
2022-10-28T06:53:27.059Z,70.50
2022-10-28T06:55:55.939Z,70.50
2022-10-28T06:58:24.053Z,70.40
2022-10-28T07:00:52.089Z,70.30
2022-10-28T07:03:19.487Z,70.90
2022-10-28T07:05:49.908Z,70.30
2022-10-28T07:08:17.166Z,70.20
2022-10-28T07:10:43.938Z,70.30
2022-10-28T07:13:10.788Z,70.40
2022-10-28T07:15:37.557Z,70.30
2022-10-28T07:18:04.583Z,70.40
2022-10-28T07:20:32.935Z,70.40
2022-10-28T07:23:02.137Z,70.30
2022-10-28T07:25:30.945Z,70.10
2022-10-28T07:27:59.315Z,69.90
2022-10-28T07:30:27.451Z,69.90
2022-10-28T07:32:55.001Z,70.20
2022-10-28T07:35:22.277Z,70.50
2022-10-28T07:37:49.122Z,70.70
2022-10-28T07:40:15.940Z,71.10
2022-10-28T07:42:42.715Z,71.20
2022-10-28T07:45:10.027Z,70.80
2022-10-28T07:47:36.832Z,70.10
2022-10-28T07:50:06.239Z,69.70
2022-10-28T07:52:34.910Z,69.30
2022-10-28T07:55:03.048Z,69.80
2022-10-28T07:57:30.019Z,69.10
2022-10-28T07:59:56.801Z,68.70
2022-10-28T08:02:25.326Z,68.50
2022-10-28T08:04:52.431Z,67.90
2022-10-28T08:07:20.128Z,67.30
2022-10-28T08:09:46.997Z,66.70
2022-10-28T08:12:15.297Z,66.20
2022-10-28T08:14:42.265Z,65.40
2022-10-28T08:17:09.207Z,64.80
2022-10-28T08:19:36.095Z,64.30
2022-10-28T08:22:03.608Z,63.40
2022-10-28T08:24:30.386Z,62.60
2022-10-28T08:26:57.256Z,61.90
2022-10-28T08:29:28.986Z,61.20
2022-10-28T08:31:57.804Z,60.40
2022-10-28T08:34:29.734Z,60.20
2022-10-28T08:36:58.036Z,59.80
2022-10-28T08:39:25.055Z,59.40
2022-10-28T08:42:22.508Z,58.80
2022-10-28T08:45:10.801Z,55.10
2022-10-28T08:47:58.569Z,58.10
2022-10-28T08:50:31.704Z,54.30
2022-10-28T08:53:19.421Z,55.20
2022-10-28T08:55:50.738Z,51.50
2022-10-28T08:58:26.497Z,53.70
2022-10-28T09:00:57.070Z,53.40
2022-10-28T09:03:45.067Z,53.30
2022-10-28T09:06:12.030Z,50.90
2022-10-28T09:08:48.257Z,53.30
2022-10-28T09:11:44.380Z,50.80
2022-10-28T09:14:32.144Z,51.40
2022-10-28T09:17:33.191Z,52.80
2022-10-28T09:20:44.230Z,51.60
2022-10-28T09:23:24.153Z,53.00
2022-10-28T09:26:28.300Z,53.00
2022-10-28T09:29:16.239Z,53.70
2022-10-28T09:32:15.802Z,54.90
2022-10-28T09:35:26.671Z,54.70
2022-10-28T09:38:01.741Z,54.90
2022-10-28T09:40:34.928Z,54.60
2022-10-28T09:43:26.859Z,54.80
2022-10-28T09:46:01.876Z,53.10
2022-10-28T09:48:41.261Z,55.20
2022-10-28T09:51:46.972Z,54.20
2022-10-28T09:54:14.405Z,54.10
2022-10-28T09:56:41.780Z,58.10
2022-10-28T09:59:15.549Z,57.90
2022-10-28T10:01:45.767Z,55.50
2022-10-28T10:04:31.334Z,57.20
2022-10-28T10:07:07.870Z,54.60
2022-10-28T10:09:38.622Z,55.30
2022-10-28T10:12:10.208Z,55.20
2022-10-28T10:14:56.533Z,53.90
2022-10-28T10:17:34.053Z,53.20
2022-10-28T10:20:06.914Z,52.20
2022-10-28T10:22:35.172Z,51.50
2022-10-28T10:25:03.158Z,53.00
2022-10-28T10:27:32.023Z,52.80
2022-10-28T10:29:59.467Z,52.70
2022-10-28T10:32:31.419Z,53.20
2022-10-28T10:35:12.942Z,52.90
2022-10-28T10:37:46.909Z,53.20
2022-10-28T10:40:19.029Z,52.00
2022-10-28T10:43:03.474Z,51.50
2022-10-28T10:45:36.426Z,52.30
2022-10-28T10:48:16.195Z,48.10
2022-10-28T10:50:49.558Z,49.70
2022-10-28T10:53:28.270Z,52.10
2022-10-28T10:56:05.255Z,48.00
2022-10-28T10:58:48.556Z,48.60
2022-10-28T11:01:23.157Z,48.00
2022-10-28T11:04:08.382Z,47.60
2022-10-28T11:06:42.869Z,47.40
2022-10-28T11:09:33.783Z,48.00
2022-10-28T11:12:01.156Z,47.50
2022-10-28T11:14:32.359Z,50.10
2022-10-28T11:17:01.964Z,50.20
2022-10-28T11:19:38.401Z,50.10
2022-10-28T11:23:01.653Z,46.80
2022-10-28T11:25:41.644Z,46.60
2022-10-28T11:28:27.385Z,47.80
2022-10-28T11:31:26.526Z,50.40
2022-10-28T11:34:28.878Z,48.30
2022-10-28T11:37:41.932Z,48.90
2022-10-28T11:40:37.214Z,49.00
2022-10-28T11:43:34.865Z,49.30
2022-10-28T11:46:46.923Z,50.70
2022-10-28T11:50:02.594Z,49.80
2022-10-28T11:52:56.243Z,50.10
2022-10-28T11:55:41.752Z,50.00
2022-10-28T11:58:45.959Z,50.70
2022-10-28T12:02:10.769Z,51.20
2022-10-28T12:04:49.456Z,50.10
2022-10-28T12:07:25.047Z,52.00
2022-10-28T12:10:11.293Z,52.70
2022-10-28T12:12:53.368Z,52.60
2022-10-28T12:15:45.338Z,50.70
2022-10-28T12:18:25.838Z,50.70
2022-10-28T12:21:00.875Z,52.40
2022-10-28T12:23:32.103Z,52.70
2022-10-28T12:26:02.072Z,52.90
2022-10-28T12:28:40.807Z,52.70
2022-10-28T12:31:23.376Z,51.50
2022-10-28T12:33:58.296Z,50.00
2022-10-28T12:36:49.788Z,51.90
2022-10-28T12:39:22.009Z,52.40
2022-10-28T12:42:14.306Z,50.60
2022-10-28T12:44:43.551Z,50.30
2022-10-28T12:47:40.561Z,52.60
2022-10-28T12:50:21.799Z,50.00
2022-10-28T12:53:24.803Z,50.90
2022-10-28T12:56:00.810Z,50.00
2022-10-28T12:58:35.172Z,50.70
2022-10-28T13:01:12.897Z,51.30
2022-10-28T13:03:40.789Z,49.50
2022-10-28T13:06:33.214Z,51.80
2022-10-28T13:09:44.871Z,49.10
2022-10-28T13:12:19.264Z,49.80
2022-10-28T13:15:04.602Z,51.10
2022-10-28T13:17:49.505Z,50.60
2022-10-28T13:20:29.008Z,49.80
2022-10-28T13:23:11.171Z,49.60
2022-10-28T13:25:45.993Z,48.90
2022-10-28T13:28:21.547Z,48.00
2022-10-28T13:30:59.180Z,50.00
2022-10-28T13:33:29.397Z,48.40
2022-10-28T13:36:16.422Z,50.60
2022-10-28T13:38:49.741Z,48.70
2022-10-28T13:41:37.434Z,50.80
2022-10-28T13:44:09.952Z,48.50
2022-10-28T13:47:07.000Z,48.90
2022-10-28T13:49:38.325Z,48.40
2022-10-28T13:52:08.265Z,49.10
2022-10-28T13:54:44.279Z,49.50
2022-10-28T13:57:38.257Z,47.90
2022-10-28T14:03:16.630Z,48.50
2022-10-28T14:05:43.833Z,50.30
2022-10-28T14:08:32.463Z,50.20
2022-10-28T14:11:03.826Z,47.90
2022-10-28T14:13:36.701Z,50.40
2022-10-28T14:16:27.441Z,49.40
2022-10-28T14:19:16.915Z,47.50
2022-10-28T14:22:00.650Z,49.50
2022-10-28T14:24:41.993Z,47.30
2022-10-28T14:27:08.743Z,48.90
2022-10-28T14:29:45.451Z,50.10
2022-10-28T14:32:30.787Z,47.50
2022-10-28T14:35:15.540Z,48.00
2022-10-28T14:38:36.254Z,47.70
2022-10-28T14:41:44.572Z,48.10
2022-10-28T14:44:53.932Z,47.80
2022-10-28T14:48:03.972Z,48.40
2022-10-28T14:50:47.225Z,48.30
2022-10-28T14:53:23.751Z,48.50
2022-10-28T14:58:52.575Z,49.20
2022-10-28T15:01:27.686Z,50.80
2022-10-28T15:04:03.174Z,50.70
2022-10-28T15:06:44.383Z,50.40
2022-10-28T15:09:20.287Z,50.00
2022-10-28T15:11:57.090Z,48.80
2022-10-28T15:14:33.871Z,50.10
2022-10-28T15:17:26.540Z,51.50
2022-10-28T15:19:59.473Z,49.90
2022-10-28T15:22:32.998Z,50.00
2022-10-28T15:25:01.851Z,50.10
2022-10-28T15:27:41.137Z,51.10
2022-10-28T15:30:25.811Z,51.20
2022-10-28T15:32:54.801Z,50.40
2022-10-28T15:35:30.508Z,51.60
2022-10-28T15:38:23.356Z,50.50
2022-10-28T15:40:50.492Z,51.80
2022-10-28T15:43:29.413Z,52.00
2022-10-28T15:46:14.081Z,51.30
2022-10-28T15:48:42.185Z,51.30
2022-10-28T15:51:19.873Z,52.60
2022-10-28T15:53:55.168Z,51.40
2022-10-28T15:56:29.639Z,52.40
2022-10-28T15:58:59.106Z,52.60
2022-10-28T16:01:35.064Z,52.80
2022-10-28T16:04:01.958Z,52.40
2022-10-28T16:06:37.081Z,53.50
2022-10-28T16:09:09.398Z,53.40
2022-10-28T16:11:42.467Z,53.80
2022-10-28T16:14:37.408Z,54.10
2022-10-28T16:17:19.936Z,53.40
2022-10-28T16:20:17.225Z,53.80
2022-10-28T16:22:46.535Z,54.30
2022-10-28T16:25:20.587Z,54.90
2022-10-28T16:27:52.157Z,55.00
2022-10-28T16:30:19.388Z,55.00
2022-10-28T16:32:48.955Z,55.20
2022-10-28T16:35:20.182Z,55.30
2022-10-28T16:37:53.713Z,55.40
2022-10-28T16:40:49.797Z,55.60
2022-10-28T16:43:19.647Z,55.90
2022-10-28T16:45:48.439Z,55.70
2022-10-28T16:48:17.602Z,55.70
2022-10-28T16:50:57.571Z,55.80
2022-10-28T16:53:24.515Z,55.40
2022-10-28T16:55:51.643Z,55.80
2022-10-28T16:58:21.878Z,55.70
2022-10-28T17:00:51.914Z,55.80
2022-10-28T17:03:18.765Z,55.70
2022-10-28T17:05:45.709Z,55.70
2022-10-28T17:08:13.225Z,55.60
2022-10-28T17:10:41.823Z,55.70
2022-10-28T17:13:16.189Z,55.70
2022-10-28T17:15:45.561Z,55.00
2022-10-28T17:18:15.057Z,55.80
2022-10-28T17:20:42.514Z,55.90
2022-10-28T17:23:09.297Z,56.00
2022-10-28T17:25:36.178Z,56.20
2022-10-28T17:28:03.310Z,56.20
2022-10-28T17:30:31.634Z,56.20
2022-10-28T17:32:58.505Z,56.40
2022-10-28T17:35:25.370Z,56.50
2022-10-28T17:37:52.608Z,56.60
2022-10-28T17:40:19.771Z,56.70
2022-10-28T17:42:46.577Z,56.90
2022-10-28T17:45:17.900Z,57.00
2022-10-28T17:47:48.270Z,57.20
2022-10-28T17:50:15.153Z,57.20
2022-10-28T17:52:42.070Z,57.40
2022-10-28T17:55:09.613Z,57.50
2022-10-28T17:57:36.427Z,57.70
2022-10-28T18:00:04.476Z,57.80
2022-10-28T18:02:31.306Z,58.00
2022-10-28T18:04:58.224Z,58.20
2022-10-28T18:07:26.607Z,58.30
2022-10-28T18:09:53.470Z,58.50
2022-10-28T18:12:20.282Z,58.60
2022-10-28T18:14:47.103Z,58.70
2022-10-28T18:17:14.641Z,58.90
2022-10-28T18:19:41.408Z,59.00
2022-10-28T18:22:08.160Z,59.10
2022-10-28T18:24:35.016Z,59.20
2022-10-28T18:27:01.833Z,59.30
2022-10-28T18:29:28.728Z,59.40
2022-10-28T18:31:56.672Z,59.50
2022-10-28T18:34:23.852Z,59.70
2022-10-28T18:36:51.614Z,59.80
2022-10-28T18:39:18.419Z,60.00
2022-10-28T18:41:45.247Z,60.10
2022-10-28T18:44:16.897Z,60.30
2022-10-28T18:46:45.283Z,60.50
2022-10-28T18:49:12.518Z,60.60
2022-10-28T18:51:39.369Z,60.70
2022-10-28T18:54:06.325Z,60.90
2022-10-28T18:56:34.260Z,61.00
2022-10-28T18:59:04.485Z,61.10
2022-10-28T19:01:32.466Z,61.30
2022-10-28T19:04:05.142Z,61.30
2022-10-28T19:06:33.899Z,61.60
2022-10-28T19:09:04.167Z,61.60
2022-10-28T19:11:33.340Z,61.80
2022-10-28T19:14:04.260Z,61.80
2022-10-28T19:16:33.695Z,62.00
2022-10-28T19:19:03.286Z,62.10
2022-10-28T19:21:30.885Z,62.10
2022-10-28T19:23:57.904Z,62.20
2022-10-28T19:26:25.188Z,62.30
2022-10-28T19:28:52.299Z,62.40
2022-10-28T19:31:25.557Z,62.50
2022-10-28T19:33:54.066Z,62.50
2022-10-28T19:36:27.376Z,62.50
2022-10-28T19:38:56.220Z,62.50
2022-10-28T19:41:27.067Z,62.60
2022-10-28T19:43:58.052Z,62.70
2022-10-28T19:46:28.765Z,61.60
2022-10-28T19:48:59.405Z,62.70
2022-10-28T19:51:29.695Z,62.80
2022-10-28T19:53:59.543Z,62.80
2022-10-28T19:56:31.794Z,62.80
2022-10-28T19:59:01.430Z,62.90
2022-10-28T20:01:35.076Z,62.90
2022-10-28T20:04:02.736Z,63.00
2022-10-28T20:06:36.502Z,62.60
2022-10-28T20:09:04.969Z,63.00
2022-10-28T20:11:35.897Z,63.20
2022-10-28T20:14:08.284Z,63.20
2022-10-28T20:16:35.818Z,63.20
2022-10-28T20:19:02.687Z,63.20
2022-10-28T20:21:33.394Z,63.20
2022-10-28T20:24:01.152Z,63.30
2022-10-28T20:26:31.024Z,63.30
2022-10-28T20:28:59.288Z,63.40
2022-10-28T20:31:29.418Z,63.40
2022-10-28T20:34:00.574Z,63.40
2022-10-28T20:36:40.079Z,63.50
2022-10-28T20:39:20.671Z,63.80
2022-10-28T20:41:49.007Z,63.40
2022-10-28T20:44:16.366Z,63.40
2022-10-28T20:46:45.098Z,63.40
2022-10-28T20:49:13.222Z,63.40
2022-10-28T20:51:40.822Z,63.30
2022-10-28T20:54:07.910Z,63.30
2022-10-28T20:56:37.762Z,63.40
2022-10-28T20:59:05.536Z,63.40
2022-10-28T21:01:36.530Z,63.40
2022-10-28T21:04:07.942Z,63.30
2022-10-28T21:06:37.164Z,63.40
2022-10-28T21:09:05.274Z,63.40
2022-10-28T21:11:32.757Z,63.40
2022-10-28T21:14:01.181Z,63.40
2022-10-28T21:16:29.539Z,63.50
2022-10-28T21:18:57.059Z,63.40
2022-10-28T21:21:25.210Z,63.40
2022-10-28T21:23:52.553Z,63.40
2022-10-28T21:26:19.625Z,63.40
2022-10-28T21:28:51.946Z,63.30
2022-10-28T21:31:20.894Z,63.00
2022-10-28T21:36:21.810Z,63.20
2022-10-28T21:38:48.708Z,63.00
2022-10-28T21:41:18.832Z,63.10
2022-10-28T21:43:49.221Z,62.90
2022-10-28T21:46:18.277Z,62.90
2022-10-28T21:48:45.539Z,62.80
2022-10-28T21:51:15.578Z,62.80
2022-10-28T21:53:44.680Z,62.70
2022-10-28T21:56:18.234Z,62.60
2022-10-28T21:58:50.317Z,62.20
2022-10-28T22:01:22.899Z,62.30
2022-10-28T22:03:55.553Z,62.00
2022-10-28T22:06:23.957Z,61.40
2022-10-28T22:08:55.211Z,61.90
2022-10-28T22:11:24.159Z,61.10
2022-10-28T22:14:03.334Z,61.50
2022-10-28T22:16:33.619Z,60.30
2022-10-28T22:19:05.754Z,61.40
2022-10-28T22:21:39.193Z,61.20
2022-10-28T22:24:07.382Z,61.10
2022-10-28T22:26:34.797Z,61.00
2022-10-28T22:29:01.908Z,60.80
2022-10-28T22:31:32.162Z,60.70
2022-10-28T22:34:00.605Z,60.20
2022-10-28T22:36:29.732Z,60.40
2022-10-28T22:38:56.948Z,60.10
2022-10-28T22:41:27.652Z,59.90
2022-10-28T22:43:57.966Z,59.60
2022-10-28T22:46:28.068Z,59.40
2022-10-28T22:48:55.472Z,59.20
2022-10-28T22:51:23.175Z,59.20
2022-10-28T22:53:50.475Z,58.90
2022-10-28T22:56:25.882Z,58.60
2022-10-28T22:58:55.535Z,56.50
2022-10-28T23:01:24.125Z,58.00
2022-10-28T23:03:53.118Z,58.10
2022-10-28T23:06:24.418Z,58.10
2022-10-28T23:08:51.322Z,57.60
2022-10-28T23:11:20.963Z,57.90
2022-10-28T23:13:55.286Z,57.60
2022-10-28T23:16:23.985Z,56.80
2022-10-28T23:18:52.900Z,57.50
2022-10-28T23:21:24.131Z,57.50
2022-10-28T23:23:59.889Z,57.30
2022-10-28T23:26:29.325Z,56.60
2022-10-28T23:28:59.506Z,57.70
2022-10-28T23:31:27.424Z,57.70
2022-10-28T23:33:55.170Z,58.10
2022-10-28T23:36:22.475Z,58.00
2022-10-28T23:38:49.282Z,58.10
2022-10-28T23:41:18.810Z,58.20
2022-10-28T23:43:48.579Z,58.30
2022-10-28T23:46:15.623Z,58.50
2022-10-28T23:48:42.679Z,58.60
2022-10-28T23:51:09.822Z,58.60
2022-10-28T23:53:37.440Z,58.60
2022-10-28T23:56:05.105Z,58.90
2022-10-28T23:58:31.943Z,59.00
